Time;durP1;ratioP1;P1;durP2;ratioP2;P2;SDS_P1;SDS_P2;PMS_P1;PMS_P2;Temp;Humidity;BMP_temperature;BMP_pressure;BME280_temperature;BME280_humidity;BME280_pressure;Samples;Min_cycle;Max_cycle;Signal;HPM_P1;HPM_P2
2021/11/09 00:00:45;;;;;;;20.07;12.83;;;4.50;99.90;;;;;;5050990;28;20248;-79
2021/11/09 00:03:14;;;;;;;22.17;13.33;;;4.40;99.90;;;;;;5050693;28;20645;-79
2021/11/09 00:05:49;;;;;;;20.93;13.23;;;4.40;99.90;;;;;;5039875;28;20691;-78
2021/11/09 00:08:19;;;;;;;21.57;14.97;;;4.40;99.90;;;;;;5054584;28;20294;-79
2021/11/09 00:10:48;;;;;;;28.30;16.03;;;4.40;99.90;;;;;;5055625;28;20200;-79
2021/11/09 00:13:16;;;;;;;25.87;15.80;;;4.30;99.90;;;;;;5054790;28;20195;-79
2021/11/09 00:15:43;;;;;;;30.37;15.87;;;4.30;99.90;;;;;;5054892;28;20874;-76
2021/11/09 00:18:11;;;;;;;24.77;15.17;;;4.20;99.90;;;;;;5055471;28;20279;-79
2021/11/09 00:20:39;;;;;;;28.97;16.57;;;4.30;99.90;;;;;;5055105;28;20588;-79
2021/11/09 00:23:08;;;;;;;22.73;15.93;;;4.30;99.90;;;;;;5054852;28;20252;-76
2021/11/09 00:25:36;;;;;;;24.37;15.83;;;4.30;99.90;;;;;;5054922;28;20287;-79
2021/11/09 00:28:05;;;;;;;23.03;15.80;;;4.30;99.90;;;;;;5055679;28;20226;-79
2021/11/09 00:30:33;;;;;;;26.63;15.97;;;4.20;99.90;;;;;;5055602;28;20231;-79
2021/11/09 00:33:01;;;;;;;21.30;14.10;;;4.20;99.90;;;;;;5055140;28;20805;-78
2021/11/09 00:35:30;;;;;;;25.23;14.40;;;4.00;99.90;;;;;;5054678;28;20876;-78
2021/11/09 00:37:59;;;;;;;18.33;13.77;;;4.10;99.90;;;;;;5055090;28;20286;-78
2021/11/09 00:40:30;;;;;;;22.07;15.23;;;4.10;99.90;;;;;;5054709;28;20238;-79
2021/11/09 00:42:57;;;;;;;19.87;14.50;;;4.10;99.90;;;;;;5054364;28;20223;-79
2021/11/09 00:45:26;;;;;;;23.23;14.13;;;4.00;99.90;;;;;;5054288;28;20291;-79
2021/11/09 00:47:53;;;;;;;19.57;13.33;;;4.00;99.90;;;;;;5055359;28;20292;-79
2021/11/09 00:50:24;;;;;;;18.23;12.67;;;4.00;99.90;;;;;;5054284;28;20197;-78
2021/11/09 00:52:51;;;;;;;16.63;11.70;;;3.90;99.90;;;;;;5054733;28;20279;-79
2021/11/09 00:55:19;;;;;;;14.97;11.67;;;3.80;99.90;;;;;;5054799;28;20291;-79
2021/11/09 00:57:48;;;;;;;16.87;11.77;;;3.80;99.90;;;;;;5037550;28;20188;-78
2021/11/09 01:00:19;;;;;;;19.47;12.33;;;3.70;99.90;;;;;;5053671;28;20234;-79
2021/11/09 01:02:49;;;;;;;17.97;12.87;;;3.70;99.90;;;;;;5036641;28;20223;-79
2021/11/09 01:05:22;;;;;;;25.47;12.67;;;3.70;99.90;;;;;;5054249;28;20332;-79
2021/11/09 01:07:50;;;;;;;20.73;13.37;;;3.70;99.90;;;;;;5047206;28;20207;-78
2021/11/09 01:10:17;;;;;;;20.47;13.00;;;3.70;99.90;;;;;;5053899;28;20736;-78
2021/11/09 01:12:45;;;;;;;18.67;12.70;;;3.70;99.90;;;;;;5054207;28;20203;-79
2021/11/09 01:15:13;;;;;;;19.47;12.77;;;3.70;99.90;;;;;;5053689;28;20259;-78
2021/11/09 01:17:41;;;;;;;21.07;13.13;;;3.70;99.90;;;;;;5053185;28;20199;-78
2021/11/09 01:20:13;;;;;;;18.67;13.23;;;3.80;99.90;;;;;;5053553;28;20231;-79
2021/11/09 01:22:40;;;;;;;20.73;14.33;;;3.70;99.90;;;;;;5053829;28;20202;-78
2021/11/09 01:25:09;;;;;;;18.30;14.13;;;3.70;99.90;;;;;;5054348;28;20203;-78
2021/11/09 01:27:36;;;;;;;18.93;13.93;;;3.70;99.90;;;;;;5054123;28;20235;-79
2021/11/09 01:30:05;;;;;;;23.90;13.30;;;3.80;99.90;;;;;;5053797;28;20283;-78
2021/11/09 01:32:33;;;;;;;23.57;14.80;;;3.70;99.90;;;;;;5054329;28;20228;-78
2021/11/09 01:35:00;;;;;;;22.13;14.17;;;3.70;99.90;;;;;;5054401;28;20242;-79
2021/11/09 01:37:28;;;;;;;21.10;14.70;;;3.80;99.90;;;;;;5053379;28;20230;-79
2021/11/09 01:39:55;;;;;;;21.97;14.93;;;3.80;99.90;;;;;;5053888;28;20203;-78
2021/11/09 01:42:22;;;;;;;23.73;14.80;;;3.80;99.90;;;;;;5053680;28;20253;-79
2021/11/09 01:44:51;;;;;;;20.70;14.90;;;3.70;99.90;;;;;;5053587;28;20721;-79
2021/11/09 01:47:18;;;;;;;22.57;15.37;;;3.70;99.90;;;;;;5053661;28;20199;-78
2021/11/09 01:49:45;;;;;;;22.33;14.00;;;3.60;99.90;;;;;;5053251;28;20200;-78
2021/11/09 01:52:12;;;;;;;19.87;13.00;;;3.60;99.90;;;;;;5052961;28;20277;-78
2021/11/09 01:54:40;;;;;;;22.67;12.43;;;3.50;99.90;;;;;;5053763;28;20289;-79
2021/11/09 01:57:08;;;;;;;18.87;12.83;;;3.40;99.90;;;;;;5052922;28;20192;-80
2021/11/09 01:59:34;;;;;;;17.90;12.07;;;3.40;99.90;;;;;;5053682;28;20613;-78
2021/11/09 02:02:02;;;;;;;17.63;11.97;;;3.40;99.90;;;;;;5053322;28;20201;-78
2021/11/09 02:04:29;;;;;;;17.43;12.50;;;3.30;99.90;;;;;;5052812;28;20234;-78
2021/11/09 02:06:56;;;;;;;16.47;12.13;;;3.30;99.90;;;;;;5035662;28;20220;-78
2021/11/09 02:09:23;;;;;;;17.60;12.67;;;3.20;99.90;;;;;;5052592;28;20278;-79
2021/11/09 02:11:51;;;;;;;18.10;12.30;;;3.30;99.90;;;;;;5053262;28;20290;-79
2021/11/09 02:14:19;;;;;;;17.57;12.83;;;3.20;99.90;;;;;;5052192;28;20269;-78
2021/11/09 02:16:46;;;;;;;16.60;11.97;;;3.20;99.90;;;;;;5052476;28;20262;-79
2021/11/09 02:19:14;;;;;;;17.77;12.00;;;3.20;99.90;;;;;;5052232;28;20250;-79
2021/11/09 02:21:42;;;;;;;21.07;12.97;;;3.20;99.90;;;;;;5049530;28;20241;-78
2021/11/09 02:24:09;;;;;;;19.70;12.60;;;3.20;99.90;;;;;;5053411;28;20226;-79
2021/11/09 02:26:36;;;;;;;20.53;12.43;;;3.00;99.90;;;;;;5052042;28;20536;-78
2021/11/09 02:29:03;;;;;;;22.43;12.60;;;3.00;99.90;;;;;;5052936;28;20212;-78
2021/11/09 02:31:31;;;;;;;20.93;12.17;;;3.10;99.90;;;;;;5051411;28;20227;-79
2021/11/09 02:33:58;;;;;;;18.70;11.80;;;3.10;99.90;;;;;;5052724;28;20234;-79
2021/11/09 02:36:25;;;;;;;16.93;11.03;;;3.10;99.90;;;;;;5052803;28;20278;-78
2021/11/09 02:38:54;;;;;;;19.10;11.50;;;3.00;99.90;;;;;;5052663;28;20293;-79
2021/11/09 02:41:21;;;;;;;20.47;11.83;;;3.10;99.90;;;;;;5051501;28;20578;-79
2021/11/09 02:43:48;;;;;;;17.50;12.30;;;3.10;99.90;;;;;;5052443;28;20315;-78
2021/11/09 02:49:05;;;;;;;18.03;12.40;;;3.10;99.90;;;;;;5051664;28;20281;-79
2021/11/09 02:51:35;;;;;;;24.33;12.33;;;3.10;99.90;;;;;;5052421;28;20251;-79
2021/11/09 02:54:08;;;;;;;21.17;12.53;;;3.10;99.90;;;;;;5052500;28;20209;-79
2021/11/09 02:56:41;;;;;;;18.83;11.77;;;3.10;99.90;;;;;;5047958;28;20198;-79
2021/11/09 02:59:17;;;;;;;20.13;11.80;;;3.10;99.90;;;;;;5052676;28;20205;-79
2021/11/09 03:01:50;;;;;;;24.47;12.77;;;3.00;99.90;;;;;;5052121;28;20659;-79
2021/11/09 03:04:28;;;;;;;20.17;12.37;;;3.00;99.90;;;;;;5052375;28;20226;-79
2021/11/09 03:06:59;;;;;;;21.50;12.10;;;3.00;99.90;;;;;;5052336;28;20310;-79
2021/11/09 03:09:39;;;;;;;19.03;11.73;;;3.00;99.90;;;;;;5051766;28;20194;-79
2021/11/09 03:12:09;;;;;;;22.50;12.40;;;3.00;99.90;;;;;;5051732;28;20893;-79
2021/11/09 03:14:36;;;;;;;21.00;12.10;;;3.00;99.90;;;;;;5051643;28;20212;-78
2021/11/09 03:17:11;;;;;;;22.07;12.70;;;2.90;99.90;;;;;;5052232;28;20216;-78
2021/11/09 03:19:41;;;;;;;22.07;13.53;;;3.00;99.90;;;;;;5052025;28;20203;-79
2021/11/09 03:44:21;;;;;;;16.77;10.87;;;2.60;99.90;;;;;;4989321;28;20222;-79
2021/11/09 03:46:53;;;;;;;21.93;12.27;;;2.60;99.90;;;;;;4993322;28;20204;-78
2021/11/09 03:49:22;;;;;;;19.93;12.80;;;2.70;99.90;;;;;;4995351;28;20217;-78
2021/11/09 03:51:49;;;;;;;18.43;12.73;;;2.70;99.90;;;;;;4993505;28;20207;-79
2021/11/09 03:54:18;;;;;;;21.07;11.50;;;2.70;99.90;;;;;;4989783;28;20578;-78
2021/11/09 03:56:50;;;;;;;16.43;12.10;;;2.60;99.90;;;;;;4997605;28;20627;-78
2021/11/09 03:59:21;;;;;;;19.20;11.70;;;2.50;99.90;;;;;;5010411;28;20641;-79
2021/11/09 04:02:02;;;;;;;16.67;11.70;;;2.50;99.90;;;;;;5007008;28;20660;-79
2021/11/09 04:04:37;;;;;;;17.73;11.40;;;2.50;99.90;;;;;;4997061;28;20290;-78
2021/11/09 04:07:09;;;;;;;16.70;11.87;;;2.50;99.90;;;;;;4992070;28;20204;-78
2021/11/09 04:09:50;;;;;;;16.23;11.20;;;2.50;99.90;;;;;;4989942;28;20717;-78
2021/11/09 04:15:19;;;;;;;14.47;11.13;;;2.40;99.90;;;;;;4976128;28;20675;-78
2021/11/09 04:18:07;;;;;;;18.23;12.20;;;2.40;99.90;;;;;;4994806;28;20201;-78
2021/11/09 04:20:46;;;;;;;19.87;12.07;;;2.40;99.90;;;;;;5010722;28;20192;-78
2021/11/09 04:29:05;;;;;;;20.33;13.23;;;2.40;99.90;;;;;;5150646;27;21141;-79
2021/11/09 04:32:03;;;;;;;16.63;12.60;;;2.40;99.90;;;;;;5149659;27;20532;-79
2021/11/09 04:35:15;;;;;;;24.10;12.67;;;2.50;99.90;;;;;;5150846;27;20201;-78
2021/11/09 05:03:02;;;;;;;19.47;12.53;;;2.40;99.90;;;;;;5107184;28;20213;-78
2021/11/09 05:08:32;;;;;;;18.20;12.80;;;2.30;99.90;;;;;;5099443;28;20247;-78
2021/11/09 05:11:00;;;;;;;17.20;12.30;;;2.30;99.90;;;;;;5106262;28;20196;-78
2021/11/09 05:13:27;;;;;;;18.60;12.33;;;2.40;99.90;;;;;;5105851;28;20690;-78
2021/11/09 05:15:55;;;;;;;17.17;12.70;;;2.30;99.90;;;;;;5106184;28;20305;-78
2021/11/09 05:18:24;;;;;;;16.63;12.27;;;2.20;99.90;;;;;;5106928;28;20281;-79
2021/11/09 05:20:51;;;;;;;16.17;12.43;;;2.30;99.90;;;;;;5112217;28;20280;-79
2021/11/09 05:23:19;;;;;;;17.30;13.23;;;2.30;99.90;;;;;;5107938;28;20289;-78
2021/11/09 05:25:47;;;;;;;17.30;12.90;;;2.30;99.90;;;;;;5124256;27;20236;-78
2021/11/09 05:28:15;;;;;;;18.17;13.13;;;2.30;99.90;;;;;;5158050;27;20231;-79
2021/11/09 05:30:46;;;;;;;19.97;13.00;;;2.20;99.90;;;;;;5154350;27;20208;-79
2021/11/09 05:33:13;;;;;;;17.37;12.30;;;2.30;99.90;;;;;;5170782;27;20202;-79
2021/11/09 05:35:42;;;;;;;15.97;12.90;;;2.30;99.90;;;;;;5149238;27;20293;-78
2021/11/09 05:38:10;;;;;;;22.83;14.37;;;2.30;99.90;;;;;;5147042;27;20198;-78
2021/11/09 05:40:39;;;;;;;19.20;13.90;;;2.20;99.90;;;;;;5135224;27;20189;-79
2021/11/09 05:43:07;;;;;;;18.30;13.03;;;2.30;99.90;;;;;;5135781;27;20229;-79
2021/11/09 05:45:35;;;;;;;17.90;13.13;;;2.30;99.90;;;;;;5136029;27;20288;-79
2021/11/09 05:48:02;;;;;;;18.70;12.93;;;2.20;99.90;;;;;;5149327;27;20304;-78
2021/11/09 05:50:31;;;;;;;19.27;12.97;;;2.20;99.90;;;;;;5136196;27;20233;-79
2021/11/09 05:52:59;;;;;;;17.13;12.50;;;2.20;99.90;;;;;;5134374;27;20253;-79
2021/11/09 05:55:28;;;;;;;24.67;15.37;;;2.20;99.90;;;;;;5134013;27;20635;-79
2021/11/09 05:57:55;;;;;;;20.87;14.07;;;2.20;99.90;;;;;;5133796;27;20292;-80
2021/11/09 06:00:22;;;;;;;20.03;14.20;;;2.30;99.90;;;;;;5135394;27;20197;-80
2021/11/09 06:02:49;;;;;;;21.30;14.00;;;2.20;99.90;;;;;;5135276;27;20289;-80
2021/11/09 06:05:16;;;;;;;19.43;15.33;;;2.20;99.90;;;;;;5135400;27;20233;-80
2021/11/09 06:07:43;;;;;;;23.37;16.13;;;2.30;99.90;;;;;;5146410;27;20252;-78
2021/11/09 06:10:12;;;;;;;27.03;19.70;;;2.20;99.90;;;;;;5137168;27;20634;-78
2021/11/09 06:12:39;;;;;;;24.37;17.63;;;2.30;99.90;;;;;;5134955;27;20647;-78
2021/11/09 06:15:06;;;;;;;21.43;16.27;;;2.20;99.90;;;;;;5134981;27;20259;-79
2021/11/09 06:17:33;;;;;;;23.30;16.40;;;2.20;99.90;;;;;;5134632;27;20272;-78
2021/11/09 06:20:00;;;;;;;22.33;14.50;;;2.20;99.90;;;;;;5136235;27;20272;-79
2021/11/09 06:22:27;;;;;;;19.03;13.90;;;2.20;99.90;;;;;;5133879;27;20207;-78
2021/11/09 06:24:54;;;;;;;20.13;14.03;;;2.20;99.90;;;;;;5134840;27;20236;-79
2021/11/09 06:27:23;;;;;;;20.30;13.37;;;2.20;99.90;;;;;;5133323;27;20225;-78
2021/11/09 06:29:50;;;;;;;16.97;12.17;;;2.10;99.90;;;;;;5140389;27;20200;-85
2021/11/09 06:32:18;;;;;;;17.40;12.70;;;2.10;99.90;;;;;;5133218;27;20672;-83
2021/11/09 06:34:45;;;;;;;17.00;12.23;;;2.10;99.90;;;;;;5134005;27;20235;-82
2021/11/09 06:37:13;;;;;;;19.87;12.90;;;2.00;99.90;;;;;;5138734;27;20289;-84
2021/11/09 06:39:43;;;;;;;16.47;12.53;;;2.00;99.90;;;;;;5150680;27;20755;-89
2021/11/09 06:42:10;;;;;;;18.50;12.83;;;2.10;99.90;;;;;;5135988;27;20672;-84
2021/11/09 06:44:38;;;;;;;16.47;12.27;;;2.10;99.90;;;;;;5140867;27;20209;-78
2021/11/09 06:47:05;;;;;;;17.20;12.10;;;2.10;99.90;;;;;;5134301;27;20229;-79
2021/11/09 06:49:32;;;;;;;16.80;13.20;;;2.10;99.90;;;;;;5133666;27;20283;-79
2021/11/09 06:52:00;;;;;;;16.27;12.83;;;2.10;99.90;;;;;;5131676;27;20232;-80
2021/11/09 06:54:28;;;;;;;16.00;12.37;;;2.10;99.90;;;;;;5133999;27;20201;-80
2021/11/09 06:56:55;;;;;;;15.00;11.57;;;2.00;99.90;;;;;;5134469;27;20224;-80
2021/11/09 06:59:22;;;;;;;16.17;12.40;;;2.00;99.90;;;;;;5134577;27;20645;-84
2021/11/09 07:01:51;;;;;;;19.07;12.57;;;2.00;99.90;;;;;;5133151;27;20230;-84
2021/11/09 07:04:18;;;;;;;15.93;12.27;;;2.00;99.90;;;;;;5134361;27;20197;-84
2021/11/09 07:06:45;;;;;;;15.77;11.93;;;2.10;99.90;;;;;;5134383;27;20201;-84
2021/11/09 07:09:13;;;;;;;18.00;12.87;;;2.10;99.90;;;;;;5134414;27;20222;-84
2021/11/09 07:11:40;;;;;;;18.83;13.20;;;2.10;99.90;;;;;;5134415;27;20568;-84
2021/11/09 07:14:08;;;;;;;18.23;13.10;;;2.20;99.90;;;;;;5134297;27;20245;-85
2021/11/09 07:16:36;;;;;;;17.43;12.90;;;2.20;99.90;;;;;;5134061;27;20821;-84
2021/11/09 07:19:05;;;;;;;17.13;12.73;;;2.20;99.90;;;;;;5132669;27;20193;-84
2021/11/09 07:21:32;;;;;;;17.40;12.27;;;2.20;99.90;;;;;;5133681;27;20193;-84
2021/11/09 07:24:00;;;;;;;15.23;12.53;;;2.20;99.90;;;;;;5134025;27;20362;-84
2021/11/09 07:26:27;;;;;;;17.90;12.63;;;2.20;99.90;;;;;;5133630;27;20634;-84
2021/11/09 07:28:55;;;;;;;18.70;13.87;;;2.40;99.90;;;;;;5132885;27;20301;-85
2021/11/09 07:31:22;;;;;;;17.90;13.80;;;2.70;99.90;;;;;;5133612;27;20204;-84
2021/11/09 07:33:51;;;;;;;14.50;11.93;;;3.10;99.90;;;;;;5133442;27;20258;-84
2021/11/09 07:36:20;;;;;;;15.10;11.53;;;3.40;99.90;;;;;;5132454;27;20208;-85
2021/11/09 07:38:47;;;;;;;14.53;11.87;;;3.60;99.90;;;;;;5131245;27;20200;-85
2021/11/09 07:41:15;;;;;;;15.90;11.20;;;4.00;99.90;;;;;;5133200;27;20690;-85
2021/11/09 07:43:42;;;;;;;15.77;11.20;;;4.30;99.90;;;;;;5133052;27;20288;-84
2021/11/09 07:46:09;;;;;;;15.50;11.43;;;4.90;99.90;;;;;;5133080;27;20195;-85
2021/11/09 07:48:36;;;;;;;15.23;10.47;;;5.10;99.90;;;;;;5133421;27;20250;-85
2021/11/09 07:51:04;;;;;;;14.67;10.00;;;5.60;99.90;;;;;;5133060;27;20227;-85
2021/11/09 07:53:35;;;;;;;10.77;8.70;;;5.90;99.90;;;;;;5133558;27;20609;-85
2021/11/09 07:56:15;;;;;;;17.53;10.17;;;6.40;99.90;;;;;;5133340;27;20555;-85
2021/11/09 07:58:49;;;;;;;15.40;9.30;;;6.80;99.90;;;;;;5133294;27;20282;-85
2021/11/09 08:01:18;;;;;;;20.57;9.97;;;6.80;99.90;;;;;;5132529;27;20272;-85
2021/11/09 08:03:49;;;;;;;11.40;9.20;;;6.40;99.90;;;;;;5133005;27;20199;-85
2021/11/09 08:06:20;;;;;;;13.97;9.53;;;6.10;99.90;;;;;;5132264;27;20229;-85
2021/11/09 08:11:35;;;;;;;17.77;8.93;;;6.30;99.90;;;;;;5131470;27;20208;-85
2021/11/09 08:14:03;;;;;;;16.03;8.93;;;6.30;99.90;;;;;;5132017;27;20221;-85
2021/11/09 08:16:30;;;;;;;17.50;9.63;;;6.10;99.90;;;;;;5132791;27;20387;-86
2021/11/09 08:18:57;;;;;;;14.93;9.33;;;6.10;99.90;;;;;;5132872;27;20227;-85
2021/11/09 08:21:24;;;;;;;14.70;8.93;;;6.10;99.90;;;;;;5132065;27;20596;-85
2021/11/09 08:23:53;;;;;;;11.17;8.57;;;6.50;99.90;;;;;;5132591;27;20259;-85
2021/11/09 08:26:23;;;;;;;13.07;9.10;;;7.10;99.90;;;;;;5132223;28;20205;-86
2021/11/09 08:28:50;;;;;;;10.70;8.60;;;7.90;99.90;;;;;;5131663;28;20225;-86
2021/11/09 08:31:20;;;;;;;12.07;9.00;;;8.20;99.90;;;;;;5132465;28;20201;-85
2021/11/09 08:33:48;;;;;;;20.33;9.57;;;8.30;99.90;;;;;;5133001;27;20205;-85
2021/11/09 08:36:16;;;;;;;20.47;13.17;;;7.90;99.90;;;;;;5132934;27;20207;-85
2021/11/09 08:38:43;;;;;;;18.97;12.83;;;7.70;99.90;;;;;;5132495;27;20200;-85
2021/11/09 08:41:12;;;;;;;18.23;12.30;;;7.90;99.90;;;;;;5132375;28;20692;-86
2021/11/09 08:43:45;;;;;;;18.30;10.70;;;8.20;99.90;;;;;;5133152;28;20230;-85
2021/11/09 08:46:16;;;;;;;11.80;8.50;;;8.60;99.90;;;;;;5132642;27;20211;-86
2021/11/09 08:48:46;;;;;;;13.97;9.13;;;8.60;99.90;;;;;;5132114;27;20265;-85
2021/11/09 08:51:14;;;;;;;14.47;9.80;;;8.20;99.90;;;;;;5132505;27;20197;-86
2021/11/09 08:53:44;;;;;;;15.37;9.60;;;8.70;99.90;;;;;;5114687;27;20283;-85
2021/11/09 08:56:24;;;;;;;16.03;10.90;;;8.40;99.90;;;;;;5132693;27;20203;-85
2021/11/09 09:04:25;;;;;;;21.40;14.50;;;8.30;99.90;;;;;;5069115;28;20195;-84
2021/11/09 09:06:55;;;;;;;17.27;13.47;;;8.00;99.90;;;;;;5069272;28;20199;-85
2021/11/09 09:09:22;;;;;;;16.57;12.60;;;7.90;99.90;;;;;;5069419;28;20279;-85
2021/11/09 09:11:52;;;;;;;16.67;11.43;;;7.90;99.90;;;;;;5069596;28;20245;-86
2021/11/09 09:14:58;;;;;;;18.37;11.77;;;8.10;99.90;;;;;;5070392;28;20223;-85
2021/11/09 09:17:25;;;;;;;19.60;12.97;;;8.50;99.90;;;;;;5073203;28;20217;-85
2021/11/09 09:19:57;;;;;;;16.23;12.07;;;8.90;99.90;;;;;;5064562;28;20196;-85
2021/11/09 09:22:28;;;;;;;18.73;10.47;;;8.90;99.90;;;;;;5058411;28;20261;-85
2021/11/09 09:25:11;;;;;;;16.87;10.90;;;9.10;99.90;;;;;;5053053;28;20217;-85
2021/11/09 09:28:03;;;;;;;15.83;10.83;;;8.90;99.90;;;;;;5052481;28;20644;-85
2021/11/09 09:30:35;;;;;;;18.70;11.10;;;9.30;99.90;;;;;;5052951;28;20199;-86
2021/11/09 09:52:51;;;;;;;13.13;8.60;;;12.60;99.90;;;;;;5092591;28;20193;-86
2021/11/09 09:55:36;;;;;;;13.60;8.10;;;14.00;99.90;;;;;;5091458;28;20197;-86
2021/11/09 09:58:04;;;;;;;15.13;8.77;;;13.80;99.90;;;;;;5091394;28;20202;-85
2021/11/09 10:00:33;;;;;;;15.83;9.00;;;13.60;99.90;;;;;;5092141;28;20214;-87
2021/11/09 10:03:00;;;;;;;16.63;8.87;;;13.90;99.90;;;;;;5076075;28;20202;-86
2021/11/09 10:05:29;;;;;;;19.40;9.57;;;14.50;99.90;;;;;;5092374;28;20279;-87
2021/11/09 10:07:58;;;;;;;18.70;10.23;;;14.50;99.90;;;;;;5092355;28;20186;-87
2021/11/09 10:10:27;;;;;;;22.50;11.47;;;15.10;99.90;;;;;;5092007;28;20263;-87
2021/11/09 10:13:00;;;;;;;19.93;11.93;;;15.80;99.90;;;;;;5102907;28;20297;-87
2021/11/09 10:15:29;;;;;;;20.03;9.90;;;15.60;99.90;;;;;;5114899;28;20247;-87
2021/11/09 10:18:02;;;;;;;15.93;9.70;;;15.80;99.90;;;;;;5115191;28;20247;-88
2021/11/09 10:20:32;;;;;;;16.27;9.87;;;15.50;99.90;;;;;;5130703;27;20204;-87
2021/11/09 10:23:02;;;;;;;17.63;9.50;;;15.20;99.90;;;;;;5135392;27;20232;-87
2021/11/09 10:25:30;;;;;;;18.20;10.07;;;15.50;99.90;;;;;;5134741;27;20543;-87
2021/11/09 10:28:01;;;;;;;20.63;9.90;;;15.10;99.90;;;;;;5134788;27;20256;-87
2021/11/09 10:30:31;;;;;;;16.98;9.38;;;15.20;99.90;;;;;;5135146;27;20648;-88
2021/11/09 10:33:00;;;;;;;17.80;9.10;;;15.40;99.90;;;;;;5135274;27;20302;-87
2021/11/09 10:35:27;;;;;;;18.33;7.43;;;15.40;99.90;;;;;;5134522;27;20280;-88
2021/11/09 10:37:55;;;;;;;18.75;7.20;;;15.40;99.90;;;;;;5135475;27;20208;-87
2021/11/09 10:40:25;;;;;;;16.52;8.75;;;15.80;99.90;;;;;;5134644;27;20272;-88
2021/11/09 10:42:55;;;;;;;13.98;8.52;;;16.30;99.90;;;;;;5135328;27;20602;-88
2021/11/09 10:45:24;;;;;;;20.40;8.98;;;16.40;99.90;;;;;;5135158;27;20228;-87
2021/11/09 10:47:53;;;;;;;14.65;6.07;;;16.40;99.90;;;;;;5134716;27;20197;-88
2021/11/09 10:50:24;;;;;;;12.95;7.10;;;16.80;99.90;;;;;;5133784;27;20305;-88
2021/11/09 10:53:02;;;;;;;17.10;7.32;;;16.90;99.90;;;;;;5134611;27;20690;-88
2021/11/09 10:55:34;;;;;;;13.35;6.85;;;16.10;99.90;;;;;;5134331;27;20245;-87
2021/11/09 10:58:16;;;;;;;14.50;7.35;;;16.10;99.90;;;;;;5135021;27;20253;-88
2021/11/09 11:03:49;;;;;;;14.52;5.20;;;17.00;99.90;;;;;;5134494;27;20192;-88
2021/11/09 11:06:20;;;;;;;14.95;5.57;;;18.50;99.90;;;;;;5134769;27;20242;-89
2021/11/09 11:08:48;;;;;;;14.20;6.85;;;17.90;99.90;;;;;;5134017;27;20216;-88
2021/11/09 11:11:21;;;;;;;14.63;7.47;;;18.10;99.90;;;;;;5134094;27;20189;-88
2021/11/09 11:13:50;;;;;;;14.32;7.80;;;17.90;99.90;;;;;;5134127;27;20312;-88
2021/11/09 11:16:19;;;;;;;15.38;7.50;;;17.20;99.90;;;;;;5133948;27;20281;-88
2021/11/09 11:18:48;;;;;;;19.40;7.40;;;18.40;99.90;;;;;;5133738;27;20624;-88
2021/11/09 11:21:18;;;;;;;15.63;6.72;;;18.40;99.90;;;;;;5134375;27;20653;-88
2021/11/09 11:23:46;;;;;;;15.55;6.90;;;16.80;99.90;;;;;;5133908;27;20209;-88
2021/11/09 11:26:14;;;;;;;13.27;6.63;;;16.70;99.90;;;;;;5134520;27;20703;-88
2021/11/09 11:28:44;;;;;;;13.90;7.18;;;16.70;99.90;;;;;;5133636;27;21003;-88
2021/11/09 11:31:13;;;;;;;13.85;6.97;;;16.40;99.90;;;;;;5134171;27;20224;-88
2021/11/09 11:33:41;;;;;;;13.63;6.57;;;16.40;99.90;;;;;;5133909;27;20202;-87
2021/11/09 11:36:09;;;;;;;17.13;6.93;;;16.70;99.90;;;;;;5133919;27;20208;-88
2021/11/09 11:38:39;;;;;;;14.52;6.72;;;16.40;99.90;;;;;;5133292;27;20634;-87
2021/11/09 11:41:07;;;;;;;15.82;6.32;;;16.70;99.90;;;;;;5133592;27;20192;-88
2021/11/09 11:43:54;;;;;;;10.52;4.88;;;16.90;99.90;;;;;;5133547;27;20284;-88
2021/11/09 11:46:50;;;;;;;11.98;5.00;;;16.60;99.90;;;;;;5133826;27;20273;-88
2021/11/09 11:49:27;;;;;;;16.23;4.43;;;16.50;99.90;;;;;;5133845;27;20259;-88
2021/11/09 11:52:14;;;;;;;9.75;3.35;;;15.90;99.90;;;;;;5133363;27;20276;-88
2021/11/09 11:54:50;;;;;;;10.50;4.78;;;16.00;99.90;;;;;;5133766;27;20636;-88
2021/11/09 11:57:51;;;;;;;11.60;4.07;;;16.50;99.90;;;;;;5133769;27;20227;-88
2021/11/09 12:00:37;;;;;;;12.20;4.90;;;16.60;99.90;;;;;;5111618;28;20196;-88
2021/11/09 12:03:21;;;;;;;11.20;3.50;;;16.70;99.90;;;;;;5112952;28;20217;-88
2021/11/09 12:05:50;;;;;;;11.43;3.92;;;16.00;99.90;;;;;;5120386;27;20204;-88
2021/11/09 12:08:35;;;;;;;8.82;4.00;;;16.90;99.90;;;;;;5133368;27;20253;-88
2021/11/09 12:11:04;;;;;;;12.23;4.25;;;16.30;99.90;;;;;;5138928;27;20197;-88
2021/11/09 12:13:31;;;;;;;10.82;3.80;;;16.30;99.90;;;;;;5133356;27;20288;-88
2021/11/09 12:16:02;;;;;;;9.75;3.47;;;16.30;99.90;;;;;;5133402;27;20300;-88
2021/11/09 12:18:44;;;;;;;11.45;4.00;;;16.40;99.90;;;;;;5133651;27;20208;-87
2021/11/09 12:21:39;;;;;;;12.40;4.00;;;17.40;99.90;;;;;;5132973;27;20238;-88
2021/11/09 12:24:23;;;;;;;11.50;3.83;;;17.00;99.90;;;;;;5125504;27;20288;-88
2021/11/09 12:26:58;;;;;;;13.57;3.85;;;17.30;99.90;;;;;;5133376;27;20801;-88
2021/11/09 12:29:46;;;;;;;10.27;4.25;;;17.70;99.90;;;;;;5133381;27;20273;-88
2021/11/09 12:32:28;;;;;;;11.45;4.10;;;17.50;99.90;;;;;;5133060;27;20185;-87
2021/11/09 12:35:03;;;;;;;13.50;4.57;;;17.70;99.90;;;;;;5133178;27;20284;-88
2021/11/09 12:37:32;;;;;;;12.50;4.70;;;18.00;99.90;;;;;;5132988;27;20196;-88
2021/11/09 12:40:24;;;;;;;13.98;5.28;;;17.00;99.90;;;;;;5133065;27;20280;-87
2021/11/09 12:43:07;;;;;;;10.70;4.82;;;16.80;99.90;;;;;;5153414;27;20283;-88
2021/11/09 12:45:34;;;;;;;10.88;4.78;;;17.10;99.90;;;;;;5149458;27;20200;-88
2021/11/09 12:48:02;;;;;;;11.68;4.65;;;17.50;99.90;;;;;;5140410;27;20224;-87
2021/11/09 12:50:30;;;;;;;14.07;5.38;;;17.30;99.90;;;;;;5142362;27;20212;-88
2021/11/09 12:53:05;;;;;;;12.95;4.63;;;16.90;99.90;;;;;;5136972;27;20631;-88
2021/11/09 12:55:33;;;;;;;11.35;4.97;;;17.10;99.90;;;;;;5137169;27;20283;-87
2021/11/09 12:58:15;;;;;;;11.15;5.03;;;17.00;99.90;;;;;;5136834;27;20189;-88
2021/11/09 13:00:46;;;;;;;10.05;5.28;;;16.60;99.90;;;;;;5137400;27;20637;-88
2021/11/09 13:03:27;;;;;;;14.95;4.88;;;16.90;99.90;;;;;;5136130;27;20226;-88
2021/11/09 13:06:01;;;;;;;11.70;5.20;;;17.10;99.90;;;;;;5137019;27;20224;-87
2021/11/09 13:08:38;;;;;;;14.30;5.47;;;17.00;99.90;;;;;;5116462;28;20201;-88
2021/11/09 13:11:06;;;;;;;12.25;5.13;;;17.00;99.90;;;;;;5116025;28;20225;-88
2021/11/09 13:13:34;;;;;;;9.95;4.72;;;17.10;99.90;;;;;;5116851;27;20233;-87
2021/11/09 13:16:01;;;;;;;12.63;4.95;;;17.60;99.90;;;;;;5136496;27;20220;-87
2021/11/09 13:18:31;;;;;;;12.90;5.05;;;17.90;99.90;;;;;;5136708;27;20217;-88
2021/11/09 13:21:05;;;;;;;9.55;4.75;;;17.50;99.90;;;;;;5136477;27;20239;-87
2021/11/09 13:23:34;;;;;;;12.77;4.47;;;17.80;99.90;;;;;;5136657;27;20577;-88
2021/11/09 13:26:01;;;;;;;14.43;4.57;;;18.00;99.90;;;;;;5135777;27;20254;-88
2021/11/09 13:28:34;;;;;;;12.18;4.82;;;17.70;99.90;;;;;;5133848;27;20229;-88
2021/11/09 13:31:07;;;;;;;14.07;5.13;;;16.90;99.90;;;;;;5135953;27;20224;-88
2021/11/09 13:33:36;;;;;;;13.57;4.72;;;16.60;99.90;;;;;;5136336;27;20242;-88
2021/11/09 13:36:03;;;;;;;12.52;5.00;;;16.80;99.90;;;;;;5135857;27;20208;-87
2021/11/09 13:38:35;;;;;;;13.18;5.22;;;16.40;99.90;;;;;;5136111;27;20284;-87
2021/11/09 13:41:07;;;;;;;12.88;4.95;;;16.10;99.90;;;;;;5144313;27;20208;-87
2021/11/09 13:43:36;;;;;;;12.73;4.90;;;16.40;99.90;;;;;;5156889;27;20208;-87
2021/11/09 13:46:09;;;;;;;11.85;4.95;;;16.40;99.90;;;;;;5157050;27;20225;-88
2021/11/09 13:48:39;;;;;;;9.52;4.07;;;16.30;99.90;;;;;;5148069;27;20276;-87
2021/11/09 13:51:10;;;;;;;11.70;4.60;;;17.00;99.90;;;;;;5134664;27;20650;-88
2021/11/09 13:53:40;;;;;;;11.27;4.05;;;17.60;99.90;;;;;;5144304;27;20193;-88
2021/11/09 13:56:12;;;;;;;12.82;4.93;;;17.70;99.90;;;;;;5135676;27;20216;-88
2021/11/09 13:58:39;;;;;;;12.02;4.55;;;17.10;99.90;;;;;;5135645;27;20700;-86
2021/11/09 14:01:10;;;;;;;16.20;5.05;;;16.50;99.90;;;;;;5135383;27;20305;-86
2021/11/09 14:03:59;;;;;;;13.10;5.13;;;16.10;99.90;;;;;;5135096;27;20197;-88
2021/11/09 14:12:13;;;;;;;9.82;3.97;;;16.50;99.90;;;;;;5114957;28;20239;-88
2021/11/09 14:14:50;;;;;;;9.57;3.90;;;16.90;99.90;;;;;;5141863;27;20212;-88
2021/11/09 14:17:30;;;;;;;11.80;4.40;;;17.00;99.90;;;;;;5156169;27;20200;-87
2021/11/09 14:19:57;;;;;;;8.82;3.90;;;16.60;99.90;;;;;;5156421;27;20276;-87
2021/11/09 14:22:24;;;;;;;10.30;4.10;;;16.10;99.90;;;;;;5154790;27;20196;-87
2021/11/09 14:24:58;;;;;;;9.17;4.17;;;16.00;99.90;;;;;;5136447;27;20201;-87
2021/11/09 14:27:29;;;;;;;9.00;4.10;;;16.20;99.90;;;;;;5134729;27;20281;-87
2021/11/09 14:29:58;;;;;;;10.17;4.00;;;16.10;99.90;;;;;;5133975;27;20224;-87
2021/11/09 14:32:32;;;;;;;11.87;4.30;;;16.30;99.90;;;;;;5134968;27;20212;-86
2021/11/09 14:35:02;;;;;;;10.50;4.23;;;16.00;99.90;;;;;;5135360;27;20232;-88